Decoded Metar for KBIV (HOLLAND in MI, USA) (IATA:BIV) | Meteo·Mobile Aviation Weather
aviador You're here:

KBIV Decoded Metar

HOLLAND in MI, USA
Report Time2019-02-16 17:53:00
UTC Time2019-02-16 18:06:01
Flight Rules mvfr MVFR
Wind060° at 04 kt
W.Decomp.*RWY 08: 3.8 kt HW 1.1 kt LCW
W.Rank060° ranks 31
Current wind is below 060° avg. (5.7)
Visibility9999 m
Phenomena:N/A
Clouds:Overcast 021 Hf
Expected CloudBase > 2,000 ft AGL from Temp-Dew spread
Ceiling2,100 ft
Temp-4°C (ISA -18)
Dew Point-9°C (69% RH)
AAT-8.4°C
QNH1020 hPa
Density Alt-1,683 ft
Elevation682 ft
Report Wrong Elevation
Raw Report
KBIV 161753Z AUTO 06004KT 10SM OVC021 M04/M09 A3013 RMK AO2 SLP213
T10391089 11039 21056 50001=

Extra information for KBIV:More info

Metar Taf Metar & Taf Last 4 Metars F.Rules Stats Wind Profile Meteogram Temp Stats Airport Information Weather charts Add Link Nearby VenuesMetar ALERT Operation Metar Decoded Social comments

AIRNAV info for KBIV